createdAt,value
2022-11-23T00:00:48.856Z,5.10
2022-11-23T00:03:16.194Z,5.10
2022-11-23T00:05:42.981Z,5.10
2022-11-23T00:08:09.777Z,5.10
2022-11-23T00:10:36.580Z,5.10
2022-11-23T00:13:03.507Z,5.20
2022-11-23T00:15:30.370Z,5.20
2022-11-23T00:17:57.175Z,5.20
2022-11-23T00:20:23.996Z,5.20
2022-11-23T00:22:50.777Z,5.20
2022-11-23T00:25:17.769Z,5.20
2022-11-23T00:27:44.600Z,5.20
2022-11-23T00:30:11.967Z,5.20
2022-11-23T00:32:38.859Z,5.20
2022-11-23T00:35:05.846Z,5.20
2022-11-23T00:37:32.629Z,5.20
2022-11-23T00:39:59.439Z,5.20
2022-11-23T00:42:26.247Z,5.20
2022-11-23T00:44:53.034Z,5.20
2022-11-23T00:47:19.820Z,5.20
2022-11-23T00:49:46.628Z,5.20
2022-11-23T00:52:13.431Z,5.20
2022-11-23T00:54:40.232Z,5.20
2022-11-23T00:57:07.006Z,5.10
2022-11-23T00:59:34.127Z,5.10
2022-11-23T01:02:01.242Z,5.10
2022-11-23T01:04:29.232Z,5.10
2022-11-23T01:06:59.632Z,5.10
2022-11-23T01:09:27.020Z,5.10
2022-11-23T01:11:54.760Z,5.00
2022-11-23T01:14:22.386Z,5.00
2022-11-23T01:16:49.659Z,5.00
2022-11-23T01:19:20.763Z,5.00
2022-11-23T01:21:47.627Z,4.90
2022-11-23T01:24:20.584Z,4.90
2022-11-23T01:26:52.583Z,4.90
2022-11-23T01:29:19.588Z,4.90
2022-11-23T01:31:47.100Z,4.90
2022-11-23T01:34:15.066Z,4.90
2022-11-23T01:36:42.355Z,4.90
2022-11-23T01:39:11.405Z,4.90
2022-11-23T01:41:40.429Z,4.90
2022-11-23T01:44:29.739Z,4.90
2022-11-23T01:47:02.063Z,4.90
2022-11-23T01:49:33.734Z,4.80
2022-11-23T01:52:05.578Z,4.80
2022-11-23T01:54:38.534Z,4.80
2022-11-23T01:57:17.716Z,4.80
2022-11-23T01:59:45.717Z,4.70
2022-11-23T02:02:13.728Z,4.70
2022-11-23T02:04:43.995Z,4.70
2022-11-23T02:07:12.027Z,4.60
2022-11-23T02:09:39.409Z,4.60
2022-11-23T02:12:13.444Z,4.60
2022-11-23T02:14:41.367Z,4.60
2022-11-23T02:17:08.744Z,4.60
2022-11-23T02:20:03.572Z,4.70
2022-11-23T02:22:44.791Z,4.70
2022-11-23T02:25:36.460Z,4.60
2022-11-23T02:28:03.381Z,4.60
2022-11-23T02:30:31.987Z,4.50
2022-11-23T02:32:58.813Z,4.40
2022-11-23T02:35:25.699Z,4.40
2022-11-23T02:37:53.525Z,4.30
2022-11-23T02:40:28.608Z,4.20
2022-11-23T02:42:55.668Z,4.20
2022-11-23T02:45:33.832Z,4.10
2022-11-23T02:48:00.669Z,4.10
2022-11-23T02:50:28.024Z,4.10
2022-11-23T02:52:55.361Z,4.10
2022-11-23T02:55:22.495Z,4.10
2022-11-23T02:57:49.347Z,4.00
2022-11-23T03:00:17.219Z,4.00
2022-11-23T03:02:44.092Z,4.00
2022-11-23T03:05:11.142Z,4.00
2022-11-23T03:07:38.040Z,4.00
2022-11-23T03:10:05.839Z,3.90
2022-11-23T03:12:32.679Z,3.90
2022-11-23T03:14:59.488Z,3.80
2022-11-23T03:17:27.667Z,3.80
2022-11-23T03:19:54.568Z,3.80
2022-11-23T03:22:21.904Z,3.80
2022-11-23T03:24:48.691Z,3.80
2022-11-23T03:27:15.644Z,3.80
2022-11-23T03:29:42.466Z,3.80
2022-11-23T03:32:09.284Z,3.70
2022-11-23T03:34:36.210Z,3.70
2022-11-23T03:37:03.039Z,3.70
2022-11-23T03:39:30.060Z,3.60
2022-11-23T03:41:57.147Z,3.60
2022-11-23T03:44:23.956Z,3.60
2022-11-23T03:46:50.838Z,3.60
2022-11-23T03:49:17.731Z,3.50
2022-11-23T03:51:44.571Z,3.50
2022-11-23T03:54:11.428Z,3.50
2022-11-23T03:56:38.341Z,3.50
2022-11-23T03:59:05.152Z,3.50
2022-11-23T04:01:32.058Z,3.50
2022-11-23T04:03:59.075Z,3.40
2022-11-23T04:06:25.931Z,3.40
2022-11-23T04:08:56.197Z,3.40
2022-11-23T04:11:25.760Z,3.40
2022-11-23T04:13:52.610Z,3.40
2022-11-23T04:16:19.479Z,3.40
2022-11-23T04:18:46.330Z,3.40
2022-11-23T04:21:13.170Z,3.40
2022-11-23T04:23:39.965Z,3.40
2022-11-23T04:26:06.787Z,3.40
2022-11-23T04:28:33.643Z,3.40
2022-11-23T04:31:00.451Z,3.40
2022-11-23T04:33:27.410Z,3.40
2022-11-23T04:35:54.251Z,3.40
2022-11-23T04:38:21.080Z,3.40
2022-11-23T04:40:49.212Z,3.40
2022-11-23T04:43:16.105Z,3.40
2022-11-23T04:45:42.980Z,3.40
2022-11-23T04:48:09.872Z,3.50
2022-11-23T04:50:40.401Z,3.50
2022-11-23T04:53:07.771Z,3.50
2022-11-23T04:55:34.673Z,3.60
2022-11-23T04:58:01.633Z,3.60
2022-11-23T05:00:28.432Z,3.60
2022-11-23T05:02:55.291Z,3.70
2022-11-23T05:05:22.085Z,3.70
2022-11-23T05:07:49.000Z,3.70
2022-11-23T05:10:15.928Z,3.80
2022-11-23T05:12:42.944Z,3.80
2022-11-23T05:15:13.380Z,3.80
2022-11-23T05:17:40.238Z,3.80
2022-11-23T05:20:07.740Z,3.80
2022-11-23T05:22:34.615Z,3.80
2022-11-23T05:25:01.473Z,3.90
2022-11-23T05:27:28.424Z,3.90
2022-11-23T05:29:55.237Z,3.90
2022-11-23T05:32:22.115Z,4.00
2022-11-23T05:34:48.899Z,4.10
2022-11-23T05:37:16.030Z,4.20
2022-11-23T05:39:42.865Z,4.20
2022-11-23T05:42:09.692Z,4.20
2022-11-23T05:44:36.591Z,4.30
2022-11-23T05:47:03.457Z,4.30
2022-11-23T05:49:30.752Z,4.30
2022-11-23T05:51:57.713Z,4.30
2022-11-23T05:54:24.512Z,4.30
2022-11-23T05:56:51.442Z,4.30
2022-11-23T05:59:18.246Z,4.30
2022-11-23T06:01:45.056Z,4.30
2022-11-23T06:04:13.392Z,4.30
2022-11-23T06:06:40.311Z,4.30
2022-11-23T06:09:07.157Z,4.30
2022-11-23T06:11:35.303Z,4.40
2022-11-23T06:14:02.136Z,4.40
2022-11-23T06:16:28.985Z,4.40
2022-11-23T06:18:55.805Z,4.40
2022-11-23T06:21:22.625Z,4.40
2022-11-23T06:23:49.545Z,4.40
2022-11-23T06:26:16.485Z,4.40
2022-11-23T06:28:43.402Z,4.50
2022-11-23T06:31:10.398Z,4.50
2022-11-23T06:33:37.835Z,4.50
2022-11-23T06:36:04.990Z,4.50
2022-11-23T06:38:31.861Z,4.50
2022-11-23T06:40:59.938Z,4.50
2022-11-23T06:43:27.735Z,4.50
2022-11-23T06:45:56.060Z,4.60
2022-11-23T06:48:23.567Z,4.60
2022-11-23T06:50:50.836Z,4.60
2022-11-23T06:53:17.682Z,4.60
2022-11-23T06:55:44.611Z,4.70
2022-11-23T06:58:11.502Z,4.70
2022-11-23T07:00:38.421Z,4.80
2022-11-23T07:03:05.266Z,4.90
2022-11-23T07:05:32.071Z,5.00
2022-11-23T07:07:58.857Z,5.00
2022-11-23T07:10:26.771Z,4.90
2022-11-23T07:12:54.967Z,5.00
2022-11-23T07:15:21.963Z,5.00
2022-11-23T07:17:48.817Z,4.90
2022-11-23T07:20:16.124Z,5.00
2022-11-23T07:22:42.963Z,4.90
2022-11-23T07:25:11.478Z,4.90
2022-11-23T07:27:38.336Z,4.90
2022-11-23T07:30:05.817Z,4.90
2022-11-23T07:32:32.836Z,4.90
2022-11-23T07:34:59.811Z,4.90
2022-11-23T07:37:26.875Z,4.90
2022-11-23T07:39:58.118Z,5.00
2022-11-23T07:42:33.566Z,5.10
2022-11-23T07:45:00.859Z,5.10
2022-11-23T07:47:27.673Z,5.30
2022-11-23T07:49:54.685Z,5.30
2022-11-23T07:52:21.918Z,5.40
2022-11-23T07:54:48.866Z,5.50
2022-11-23T07:57:15.693Z,5.60
2022-11-23T07:59:42.567Z,5.70
2022-11-23T08:02:13.133Z,5.90
2022-11-23T08:04:40.019Z,5.90
2022-11-23T08:07:07.439Z,6.00
2022-11-23T08:09:34.454Z,6.00
2022-11-23T08:12:01.254Z,6.00
2022-11-23T08:14:28.142Z,6.00
2022-11-23T08:16:54.964Z,6.00
2022-11-23T08:19:21.811Z,6.10
2022-11-23T08:21:48.641Z,6.10
2022-11-23T08:24:15.504Z,6.20
2022-11-23T08:26:42.491Z,6.40
2022-11-23T08:29:09.344Z,6.60
2022-11-23T08:31:36.282Z,6.80
2022-11-23T08:34:03.841Z,7.00
2022-11-23T08:36:30.849Z,7.20
2022-11-23T08:38:57.688Z,7.40
2022-11-23T08:41:24.625Z,7.50
2022-11-23T08:43:51.876Z,7.60
2022-11-23T08:46:18.935Z,7.80
2022-11-23T08:48:45.865Z,7.90
2022-11-23T08:51:12.769Z,8.00
2022-11-23T08:53:39.606Z,8.00
2022-11-23T08:56:07.782Z,8.10
2022-11-23T08:58:34.726Z,8.10
2022-11-23T09:01:01.619Z,8.00
2022-11-23T09:03:28.405Z,7.90
2022-11-23T09:05:59.737Z,7.90
2022-11-23T09:08:26.573Z,7.80
2022-11-23T09:10:53.423Z,7.80
2022-11-23T09:13:20.380Z,7.80
2022-11-23T09:15:47.265Z,7.90
2022-11-23T09:18:14.158Z,8.00
2022-11-23T09:20:40.972Z,8.10
2022-11-23T09:23:13.692Z,8.30
2022-11-23T09:25:43.102Z,8.40
2022-11-23T09:28:12.600Z,8.40
2022-11-23T09:30:39.448Z,8.40
2022-11-23T09:33:06.350Z,8.50
2022-11-23T09:35:33.219Z,8.60
2022-11-23T09:38:00.408Z,9.30
2022-11-23T09:40:37.777Z,10.40
2022-11-23T09:43:42.745Z,12.00
2022-11-23T09:46:36.732Z,13.80
2022-11-23T09:49:09.970Z,15.60
2022-11-23T09:51:40.269Z,17.00
2022-11-23T09:54:22.351Z,17.60
2022-11-23T09:56:58.511Z,18.40
2022-11-23T09:59:31.184Z,18.70
2022-11-23T10:01:59.064Z,19.00
2022-11-23T10:04:35.566Z,19.30
2022-11-23T10:07:17.661Z,19.10
2022-11-23T10:09:54.354Z,19.70
2022-11-23T10:12:48.134Z,19.40
2022-11-23T10:15:27.642Z,19.80
2022-11-23T10:18:07.792Z,19.20
2022-11-23T10:20:53.481Z,18.80
2022-11-23T10:23:48.660Z,18.10
2022-11-23T10:26:19.135Z,18.90
2022-11-23T10:28:47.644Z,18.80
2022-11-23T10:31:20.097Z,19.90
2022-11-23T10:34:01.061Z,19.40
2022-11-23T10:36:28.072Z,19.40
2022-11-23T10:38:59.724Z,19.60
2022-11-23T10:41:26.867Z,18.50
2022-11-23T10:44:07.023Z,16.90
2022-11-23T10:46:37.401Z,15.60
2022-11-23T10:49:15.374Z,15.30
2022-11-23T10:51:59.485Z,16.00
2022-11-23T10:54:26.304Z,17.90
2022-11-23T10:56:56.756Z,18.20
2022-11-23T10:59:30.197Z,17.00
2022-11-23T11:02:13.528Z,15.20
2022-11-23T11:04:42.163Z,14.90
2022-11-23T11:07:23.779Z,15.80
2022-11-23T11:09:55.957Z,16.60
2022-11-23T11:12:23.703Z,17.10
2022-11-23T11:15:16.924Z,16.70
2022-11-23T11:17:44.057Z,17.20
2022-11-23T11:20:32.929Z,18.50
2022-11-23T11:23:15.233Z,19.90
2022-11-23T11:25:42.363Z,18.90
2022-11-23T11:28:41.178Z,20.50
2022-11-23T11:31:51.996Z,21.20
2022-11-23T11:34:40.635Z,21.10
2022-11-23T11:37:19.225Z,17.90
2022-11-23T11:39:57.695Z,17.10
2022-11-23T11:42:34.312Z,17.40
2022-11-23T11:45:05.204Z,17.30
2022-11-23T11:47:37.853Z,16.50
2022-11-23T11:50:28.466Z,15.60
2022-11-23T11:53:09.194Z,14.80
2022-11-23T11:55:54.680Z,14.00
2022-11-23T11:58:25.163Z,13.00
2022-11-23T12:01:04.051Z,12.60
2022-11-23T12:03:52.316Z,13.30
2022-11-23T12:06:32.371Z,15.30
2022-11-23T12:09:02.731Z,16.40
2022-11-23T12:11:29.644Z,17.70
2022-11-23T12:14:02.109Z,18.00
2022-11-23T12:16:41.573Z,17.60
2022-11-23T12:19:32.152Z,16.60
2022-11-23T12:22:41.395Z,17.60
2022-11-23T12:25:34.650Z,17.40
2022-11-23T12:28:13.734Z,17.90
2022-11-23T12:30:53.002Z,17.40
2022-11-23T12:33:22.864Z,17.70
2022-11-23T12:36:16.722Z,18.30
2022-11-23T12:38:55.915Z,19.10
2022-11-23T12:41:52.153Z,21.00
2022-11-23T12:44:49.243Z,21.10
2022-11-23T12:47:46.774Z,21.10
2022-11-23T12:50:30.826Z,20.90
2022-11-23T12:53:29.511Z,21.10
2022-11-23T12:56:04.589Z,20.20
2022-11-23T12:58:34.391Z,20.30
2022-11-23T13:01:31.101Z,20.20
2022-11-23T13:04:42.486Z,20.40
2022-11-23T13:07:30.617Z,20.10
2022-11-23T13:10:39.962Z,19.20
2022-11-23T13:13:25.754Z,17.30
2022-11-23T13:16:04.817Z,15.30
2022-11-23T13:18:50.407Z,14.30
2022-11-23T13:21:25.131Z,14.10
2022-11-23T13:23:52.133Z,14.70
2022-11-23T13:26:24.649Z,14.80
2022-11-23T13:28:53.315Z,15.00
2022-11-23T13:31:26.633Z,16.30
2022-11-23T13:33:56.082Z,17.00
2022-11-23T13:37:04.230Z,17.30
2022-11-23T13:39:45.402Z,17.40
2022-11-23T13:42:13.603Z,18.10
2022-11-23T13:44:40.566Z,17.40
2022-11-23T13:47:20.053Z,17.60
2022-11-23T13:49:50.086Z,18.80
2022-11-23T13:52:22.709Z,19.00
2022-11-23T13:54:57.634Z,18.20
2022-11-23T13:57:24.810Z,18.20
2022-11-23T13:59:51.713Z,17.80
2022-11-23T14:02:30.104Z,17.60
2022-11-23T14:05:34.694Z,17.70
2022-11-23T14:08:03.633Z,17.50
2022-11-23T14:10:32.314Z,17.20
2022-11-23T14:13:19.326Z,17.70
2022-11-23T14:15:59.396Z,17.90
2022-11-23T14:18:35.608Z,17.70
2022-11-23T14:21:13.989Z,18.10
2022-11-23T14:23:55.550Z,18.70
2022-11-23T14:26:39.359Z,17.40
2022-11-23T14:29:30.427Z,17.10
2022-11-23T14:32:26.746Z,17.40
2022-11-23T14:35:33.398Z,16.70
2022-11-23T14:38:15.204Z,16.30
2022-11-23T14:41:04.598Z,15.50
2022-11-23T14:43:33.277Z,14.00
2022-11-23T14:46:07.348Z,12.60
2022-11-23T14:48:35.989Z,11.70
2022-11-23T14:51:12.276Z,11.30
2022-11-23T14:53:47.150Z,10.80
2022-11-23T14:56:28.084Z,10.30
2022-11-23T14:59:02.533Z,9.80
2022-11-23T15:01:29.739Z,9.40
2022-11-23T15:03:58.439Z,9.10
2022-11-23T15:06:30.622Z,8.90
2022-11-23T15:09:32.807Z,8.60
2022-11-23T15:12:07.848Z,8.40
2022-11-23T15:14:35.299Z,8.30
2022-11-23T15:17:20.787Z,8.10
2022-11-23T15:20:01.798Z,8.00
2022-11-23T15:22:31.178Z,7.80
2022-11-23T15:25:09.186Z,7.70
2022-11-23T15:27:39.836Z,7.60
2022-11-23T15:30:19.147Z,7.40
2022-11-23T15:32:56.571Z,7.30
2022-11-23T15:35:29.648Z,7.20
2022-11-23T15:37:57.024Z,7.10
2022-11-23T15:40:29.044Z,7.00
2022-11-23T15:42:56.111Z,6.90
2022-11-23T15:45:42.049Z,6.80
2022-11-23T15:48:18.468Z,6.70
2022-11-23T15:50:54.239Z,6.60
2022-11-23T15:53:33.384Z,6.60
2022-11-23T15:56:06.240Z,6.50
2022-11-23T15:58:35.256Z,6.50
2022-11-23T16:01:13.544Z,6.40
2022-11-23T16:03:42.391Z,6.30
2022-11-23T16:06:16.639Z,6.30
2022-11-23T16:08:43.491Z,6.20
2022-11-23T16:11:35.345Z,6.10
2022-11-23T16:14:20.582Z,6.10
2022-11-23T16:16:58.534Z,6.00
2022-11-23T16:19:29.160Z,5.90
2022-11-23T16:22:02.614Z,5.80
2022-11-23T16:24:32.655Z,5.80
2022-11-23T16:27:00.068Z,5.80
2022-11-23T16:29:32.723Z,5.80
2022-11-23T16:32:01.156Z,5.70
2022-11-23T16:34:28.224Z,5.70
2022-11-23T16:36:56.247Z,5.60
2022-11-23T16:39:27.578Z,5.60
2022-11-23T16:41:54.637Z,5.50
2022-11-23T16:44:21.479Z,5.40
2022-11-23T16:46:48.530Z,5.30
2022-11-23T16:49:18.559Z,5.30
2022-11-23T16:51:46.402Z,5.20
2022-11-23T16:54:15.238Z,5.20
2022-11-23T16:56:45.140Z,5.10
2022-11-23T16:59:22.259Z,5.10
2022-11-23T17:01:56.639Z,5.00
2022-11-23T17:04:24.443Z,5.00
2022-11-23T17:06:51.359Z,4.90
2022-11-23T17:09:19.309Z,4.90
2022-11-23T17:11:50.092Z,4.90
2022-11-23T17:14:19.178Z,4.90
2022-11-23T17:16:47.248Z,4.80
2022-11-23T17:19:18.882Z,4.80
2022-11-23T17:21:46.230Z,4.70
2022-11-23T17:24:14.064Z,4.70
2022-11-23T17:26:44.586Z,4.60
2022-11-23T17:29:19.762Z,4.50
2022-11-23T17:31:47.923Z,4.50
2022-11-23T17:34:15.386Z,4.40
2022-11-23T17:36:44.313Z,4.40
2022-11-23T17:39:26.089Z,4.40
2022-11-23T17:41:52.939Z,4.30
2022-11-23T17:44:19.813Z,4.40
2022-11-23T17:46:47.728Z,4.40
2022-11-23T17:49:18.180Z,4.40
2022-11-23T17:51:44.970Z,4.40
2022-11-23T17:54:12.207Z,4.40
2022-11-23T17:56:39.226Z,4.40
2022-11-23T17:59:08.792Z,4.30
2022-11-23T18:01:35.617Z,4.30
2022-11-23T18:04:02.525Z,4.20
2022-11-23T18:06:29.547Z,4.20
2022-11-23T18:08:57.080Z,4.20
2022-11-23T18:11:24.733Z,4.10
2022-11-23T18:13:52.281Z,4.10
2022-11-23T18:16:20.585Z,4.00
2022-11-23T18:18:48.335Z,4.00
2022-11-23T18:21:15.680Z,4.00
2022-11-23T18:23:43.110Z,4.00
2022-11-23T18:26:20.166Z,4.00
2022-11-23T18:28:47.484Z,4.00
2022-11-23T18:31:14.672Z,4.00
2022-11-23T18:33:41.641Z,3.90
2022-11-23T18:36:09.292Z,3.90
2022-11-23T18:38:36.440Z,3.90
2022-11-23T18:41:03.352Z,3.80
2022-11-23T18:43:30.243Z,3.80
2022-11-23T18:45:57.190Z,3.80
2022-11-23T18:48:24.347Z,3.90
2022-11-23T18:50:51.633Z,3.90
2022-11-23T18:53:18.911Z,3.90
2022-11-23T18:55:45.730Z,4.00
2022-11-23T18:58:12.615Z,4.10
2022-11-23T19:00:39.423Z,4.20
2022-11-23T19:03:06.485Z,4.30
2022-11-23T19:05:34.808Z,4.40
2022-11-23T19:08:04.172Z,4.40
2022-11-23T19:10:35.843Z,4.50
2022-11-23T19:13:05.778Z,4.50
2022-11-23T19:15:33.952Z,4.60
2022-11-23T19:18:01.070Z,4.60
2022-11-23T19:20:29.223Z,4.60
2022-11-23T19:22:56.357Z,4.60
2022-11-23T19:25:23.355Z,4.60
2022-11-23T19:27:51.451Z,4.60
2022-11-23T19:30:18.662Z,4.60
2022-11-23T19:32:45.724Z,4.60
2022-11-23T19:35:12.687Z,4.60
2022-11-23T19:37:39.572Z,4.60
2022-11-23T19:40:07.053Z,4.60
2022-11-23T19:42:36.926Z,4.60
2022-11-23T19:45:05.830Z,4.60
2022-11-23T19:47:32.669Z,4.60
2022-11-23T19:49:59.537Z,4.60
2022-11-23T19:52:48.132Z,4.70
2022-11-23T19:55:16.525Z,4.80
2022-11-23T19:57:43.353Z,4.90
2022-11-23T20:00:10.772Z,5.00
2022-11-23T20:02:37.568Z,5.10
2022-11-23T20:05:04.703Z,5.10
2022-11-23T20:07:31.865Z,5.20
2022-11-23T20:09:58.787Z,5.10
2022-11-23T20:12:25.572Z,5.10
2022-11-23T20:14:52.413Z,5.10
2022-11-23T20:17:19.197Z,5.00
2022-11-23T20:19:46.008Z,5.00
2022-11-23T20:22:12.775Z,5.00
2022-11-23T20:24:39.575Z,5.00
2022-11-23T20:27:06.359Z,4.90
2022-11-23T20:29:33.214Z,4.90
2022-11-23T20:32:00.134Z,4.90
2022-11-23T20:34:27.333Z,4.80
2022-11-23T20:36:54.110Z,4.80
2022-11-23T20:39:21.008Z,4.80
2022-11-23T20:41:49.755Z,4.70
2022-11-23T20:44:16.685Z,4.70
2022-11-23T20:49:31.080Z,4.60
2022-11-23T20:51:58.848Z,4.60
2022-11-23T20:54:25.685Z,4.60
2022-11-23T20:56:52.581Z,4.60
2022-11-23T20:59:20.291Z,4.60
2022-11-23T21:01:47.143Z,4.60
2022-11-23T21:04:14.017Z,4.60
2022-11-23T21:06:40.894Z,4.50
2022-11-23T21:09:11.519Z,4.50
2022-11-23T21:11:56.791Z,4.50
2022-11-23T21:14:27.399Z,4.50
2022-11-23T21:16:59.642Z,4.40
2022-11-23T21:19:29.178Z,4.30
2022-11-23T21:21:57.375Z,4.30
2022-11-23T21:24:24.815Z,4.30
2022-11-23T21:26:51.716Z,4.30
2022-11-23T21:29:19.130Z,4.30
2022-11-23T21:31:47.610Z,4.30
2022-11-23T21:34:21.691Z,4.20
2022-11-23T21:36:49.275Z,4.20
2022-11-23T21:39:16.644Z,4.20
2022-11-23T21:41:44.410Z,4.20
2022-11-23T21:44:11.944Z,4.20
2022-11-23T21:46:40.551Z,4.10
2022-11-23T21:49:08.217Z,4.20
2022-11-23T21:51:35.790Z,4.20
2022-11-23T21:54:07.931Z,4.20
2022-11-23T21:56:34.795Z,4.30
2022-11-23T21:59:02.039Z,4.30
2022-11-23T22:01:34.037Z,4.30
2022-11-23T22:04:02.620Z,4.20
2022-11-23T22:06:30.293Z,4.30
2022-11-23T22:08:59.725Z,4.30
2022-11-23T22:11:31.693Z,4.30
2022-11-23T22:14:08.050Z,4.40
2022-11-23T22:16:37.024Z,4.40
2022-11-23T22:19:05.041Z,4.40
2022-11-23T22:21:37.294Z,4.50
2022-11-23T22:24:05.663Z,4.50
2022-11-23T22:26:32.763Z,4.60
2022-11-23T22:29:02.540Z,4.70
2022-11-23T22:31:33.049Z,4.70
2022-11-23T22:34:01.803Z,4.80
2022-11-23T22:36:28.767Z,4.90
2022-11-23T22:39:01.423Z,5.00
2022-11-23T22:41:30.186Z,5.00
2022-11-23T22:43:57.107Z,5.20
2022-11-23T22:46:25.304Z,5.30
2022-11-23T22:48:52.773Z,5.30
2022-11-23T22:51:23.500Z,5.30
2022-11-23T22:53:54.822Z,5.40
2022-11-23T22:56:21.736Z,5.50
2022-11-23T22:58:49.333Z,5.60
2022-11-23T23:01:19.038Z,5.60
2022-11-23T23:03:46.788Z,5.70
2022-11-23T23:06:22.042Z,5.80
2022-11-23T23:08:53.906Z,5.80
2022-11-23T23:11:21.259Z,5.90
2022-11-23T23:13:48.591Z,6.00
2022-11-23T23:16:16.266Z,6.10
2022-11-23T23:18:44.471Z,6.30
2022-11-23T23:21:16.623Z,6.40
2022-11-23T23:23:46.008Z,6.50
2022-11-23T23:26:14.351Z,6.50
2022-11-23T23:28:41.387Z,6.50
2022-11-23T23:31:11.003Z,6.50
2022-11-23T23:33:38.211Z,6.50
2022-11-23T23:36:05.322Z,6.50
2022-11-23T23:38:33.020Z,6.60
2022-11-23T23:41:00.794Z,6.60
2022-11-23T23:43:29.081Z,6.60
2022-11-23T23:46:00.699Z,6.60
2022-11-23T23:48:32.289Z,6.60
2022-11-23T23:51:04.251Z,6.70
2022-11-23T23:53:33.850Z,6.70
2022-11-23T23:56:03.584Z,6.60
2022-11-23T23:58:30.988Z,6.70
